No particular awareness of the weather is required.    There are no Weather-warnings


Meteo18 Weather Cam more information Meteo18 Weather Cam


Thunder radar more information blitzortung!


Rain radar more information rain snow radar


Visit our other weather sites:

Template documentation
and downloads

And another site



Weather Underground History page Text

Daily Summary for November 25, 2017 Units:  Both    English   Metric
« Previous Day
Next Day »
Daily Weekly Monthly Yearly Custom
  High: Low: Average:
Temperature: TemperatureC °F /  -17.8 °C 1.3 °F /  -17.1 °C 6 °F /  -14.4 °C
Dew Point: DewpointC °F /  -17.8 °C -0.1 °F /  -17.8 °C 4.1 °F /  -15.5 °C
Humidity: Humidity % 80 % 88 %
Wind Speed: WindSpeedKMH mph /  0 km/h - 5.9 mph /  9.5 km/h
Wind Gust: WindSpeedGustKMH mph /  0 km/h - -
Wind:- - West
Pressure: PressurehPa in /  0 hPa 1012.8 in /  34293.4 hPa -
Precipitation: 5.8 in /  147.32 mm    
Historical Graphs
 
 
Tabular Data for November 25, 2017
Time Temperature Dew Point Pressure Wind Wind Speed Wind Gust Humidity Rainfall Rate (Hourly)
TemperatureC °F /  -17.8 °C DewpointC °F /  -17.8 °C PressurehPa in /  0 hPa Calm     Humidity % HourlyPrecipMM in /  0 mm
00:02 8.8 °F /  -12.9 °C 7.7 °F /  -13.5 °C 1013.8 in /  34327.3 hPa Calm   1.6 mph /  2.6 km/h 93 % 1.5 in /  38.1 mm
00:12 8.6 °F /  -13 °C 7.7 °F /  -13.5 °C 1013.8 in /  34327.3 hPa Calm   1.6 mph /  2.6 km/h 94 % 1.5 in /  38.1 mm
00:17 8.6 °F /  -13 °C 7.7 °F /  -13.5 °C 1013.8 in /  34327.3 hPa Calm   1.6 mph /  2.6 km/h 94 % 1.5 in /  38.1 mm
00:22 8.6 °F /  -13 °C 7.7 °F /  -13.5 °C 1013.8 in /  34327.3 hPa Calm   1.6 mph /  2.6 km/h 94 % 1.5 in /  38.1 mm
00:27 8.5 °F /  -13.1 °C 7.6 °F /  -13.6 °C 1013.8 in /  34327.3 hPa Calm   1.6 mph /  2.6 km/h 94 % 1.5 in /  38.1 mm
00:32 8.4 °F /  -13.1 °C 7.5 °F /  -13.6 °C 1013.8 in /  34327.3 hPa Calm   1.6 mph /  2.6 km/h 94 % 1.5 in /  38.1 mm
00:37 8.4 °F /  -13.1 °C 7.5 °F /  -13.6 °C 1013.8 in /  34327.3 hPa SW 1.6 mph /  2.6 km/h 1.6 mph /  2.6 km/h 94 % 1.5 in /  38.1 mm
00:42 8.3 °F /  -13.2 °C 7.4 °F /  -13.7 °C 1013.8 in /  34327.3 hPa Calm   1.6 mph /  2.6 km/h 94 % 0.5 in /  12.7 mm
00:52 8.3 °F /  -13.2 °C 7.4 °F /  -13.7 °C 1013.4 in /  34313.7 hPa Calm   1.6 mph /  2.6 km/h 94 % 0.5 in /  12.7 mm
01:02 8.2 °F /  -13.2 °C 7.3 °F /  -13.7 °C 1013.4 in /  34313.7 hPa Calm   3.2 mph /  5.1 km/h 94 % 0.5 in /  12.7 mm
01:12 8.2 °F /  -13.2 °C 7.4 °F /  -13.7 °C 1013.1 in /  34303.6 hPa Calm   1.6 mph /  2.6 km/h 95 % 0.5 in /  12.7 mm
01:17 8.2 °F /  -13.2 °C 7.4 °F /  -13.7 °C 1013.1 in /  34303.6 hPa Calm   3.2 mph /  5.1 km/h 95 % 0.8 in /  20.32 mm
01:22 8.2 °F /  -13.2 °C 7.4 °F /  -13.7 °C 1012.8 in /  34293.4 hPa Calm   3.2 mph /  5.1 km/h 95 % 0.8 in /  20.32 mm
01:32 8.1 °F /  -13.3 °C 7.3 °F /  -13.7 °C 1013.4 in /  34313.7 hPa WSW 4.8 mph /  7.7 km/h 4.8 mph /  7.7 km/h 95 % 1.0 in /  25.4 mm
01:42 8.0 °F /  -13.3 °C 7.2 °F /  -13.8 °C 1013.4 in /  34313.7 hPa SW 4.8 mph /  7.7 km/h 6.4 mph /  10.3 km/h 95 % 1.0 in /  25.4 mm
01:52 7.9 °F /  -13.4 °C 7.1 °F /  -13.8 °C 1013.4 in /  34313.7 hPa WSW 4.8 mph /  7.7 km/h 8.0 mph /  12.9 km/h 95 % 1.0 in /  25.4 mm
02:02 7.8 °F /  -13.4 °C 7.0 °F /  -13.9 °C 1013.4 in /  34313.7 hPa SW 9.7 mph /  15.6 km/h 9.7 mph /  15.6 km/h 95 % 1.0 in /  25.4 mm
02:07 7.8 °F /  -13.4 °C 7.0 °F /  -13.9 °C 1013.4 in /  34313.7 hPa SW 3.2 mph /  5.1 km/h 9.7 mph /  15.6 km/h 95 % 0.8 in /  20.32 mm
02:12 7.8 °F /  -13.4 °C 7.0 °F /  -13.9 °C 1013.1 in /  34303.6 hPa SW 1.6 mph /  2.6 km/h 9.7 mph /  15.6 km/h 95 % 1.0 in /  25.4 mm
02:17 7.8 °F /  -13.4 °C 7.0 °F /  -13.9 °C 1013.4 in /  34313.7 hPa WSW 4.8 mph /  7.7 km/h 9.7 mph /  15.6 km/h 95 % 0.8 in /  20.32 mm
02:22 7.8 °F /  -13.4 °C 7.0 °F /  -13.9 °C 1013.1 in /  34303.6 hPa SW 4.8 mph /  7.7 km/h 9.7 mph /  15.6 km/h 95 % 0.8 in /  20.32 mm
02:27 7.7 °F /  -13.5 °C 6.9 °F /  -13.9 °C 1013.1 in /  34303.6 hPa WSW 4.8 mph /  7.7 km/h 9.7 mph /  15.6 km/h 95 % 0.8 in /  20.32 mm
02:32 7.7 °F /  -13.5 °C 7.1 °F /  -13.8 °C 1013.1 in /  34303.6 hPa West 4.8 mph /  7.7 km/h 9.7 mph /  15.6 km/h 96 % 0.8 in /  20.32 mm
02:42 7.8 °F /  -13.4 °C 7.2 °F /  -13.8 °C 1013.1 in /  34303.6 hPa WSW 1.6 mph /  2.6 km/h 9.7 mph /  15.6 km/h 96 % 0.8 in /  20.32 mm
02:52 7.8 °F /  -13.4 °C 7.2 °F /  -13.8 °C 1012.8 in /  34293.4 hPa SW 3.2 mph /  5.1 km/h 6.4 mph /  10.3 km/h 96 % 0.8 in /  20.32 mm
03:02 7.8 °F /  -13.4 °C 7.2 °F /  -13.8 °C 1012.8 in /  34293.4 hPa West 3.2 mph /  5.1 km/h 6.4 mph /  10.3 km/h 96 % 0.8 in /  20.32 mm
03:12 7.8 °F /  -13.4 °C 7.2 °F /  -13.8 °C 1012.8 in /  34293.4 hPa SW 1.6 mph /  2.6 km/h 6.4 mph /  10.3 km/h 96 % 0.5 in /  12.7 mm
03:17 7.9 °F /  -13.4 °C 7.3 °F /  -13.7 °C 1012.8 in /  34293.4 hPa SSW 1.6 mph /  2.6 km/h 6.4 mph /  10.3 km/h 96 % 0.8 in /  20.32 mm
03:22 7.9 °F /  -13.4 °C 7.3 °F /  -13.7 °C 1012.8 in /  34293.4 hPa SW 1.6 mph /  2.6 km/h 6.4 mph /  10.3 km/h 96 % 0.8 in /  20.32 mm
03:32 8.0 °F /  -13.3 °C 7.4 °F /  -13.7 °C 1012.8 in /  34293.4 hPa SW 3.2 mph /  5.1 km/h 6.4 mph /  10.3 km/h 96 % 0.8 in /  20.32 mm
03:42 8.1 °F /  -13.3 °C 7.5 °F /  -13.6 °C 1012.8 in /  34293.4 hPa WSW 3.2 mph /  5.1 km/h 9.7 mph /  15.6 km/h 96 % 0.8 in /  20.32 mm
03:52 8.1 °F /  -13.3 °C 7.5 °F /  -13.6 °C 1012.8 in /  34293.4 hPa SW 3.2 mph /  5.1 km/h 9.7 mph /  15.6 km/h 96 % 1.0 in /  25.4 mm
03:57 8.1 °F /  -13.3 °C 7.5 °F /  -13.6 °C 1012.8 in /  34293.4 hPa SW 8.0 mph /  12.9 km/h 14.5 mph /  23.3 km/h 96 % 1.0 in /  25.4 mm
04:02 8.2 °F /  -13.2 °C 7.6 °F /  -13.6 °C 1012.8 in /  34293.4 hPa WSW 6.4 mph /  10.3 km/h 14.5 mph /  23.3 km/h 96 % 1.3 in /  33.02 mm
04:12 8.2 °F /  -13.2 °C 7.6 °F /  -13.6 °C 1012.8 in /  34293.4 hPa West 3.2 mph /  5.1 km/h 11.3 mph /  18.2 km/h 96 % 2.0 in /  50.8 mm
04:22 8.2 °F /  -13.2 °C 7.6 °F /  -13.6 °C 1012.8 in /  34293.4 hPa WNW 6.4 mph /  10.3 km/h 12.9 mph /  20.8 km/h 96 % 2.3 in /  58.42 mm
04:27 8.2 °F /  -13.2 °C 7.6 °F /  -13.6 °C 1012.8 in /  34293.4 hPa WNW 1.6 mph /  2.6 km/h 12.9 mph /  20.8 km/h 96 % 2.3 in /  58.42 mm
04:32 8.2 °F /  -13.2 °C 7.6 °F /  -13.6 °C 1012.8 in /  34293.4 hPa WNW 1.6 mph /  2.6 km/h 12.9 mph /  20.8 km/h 96 % 2.3 in /  58.42 mm
04:42 8.1 °F /  -13.3 °C 7.3 °F /  -13.7 °C 1012.8 in /  34293.4 hPa West 1.6 mph /  2.6 km/h 6.4 mph /  10.3 km/h 95 % 2.3 in /  58.42 mm
04:47 8.1 °F /  -13.3 °C 7.3 °F /  -13.7 °C 1012.8 in /  34293.4 hPa Calm   9.7 mph /  15.6 km/h 95 % 2.0 in /  50.8 mm
04:52 8.1 °F /  -13.3 °C 7.3 °F /  -13.7 °C 1012.8 in /  34293.4 hPa WSW 3.2 mph /  5.1 km/h 9.7 mph /  15.6 km/h 95 % 2.0 in /  50.8 mm
04:57 8.0 °F /  -13.3 °C 7.2 °F /  -13.8 °C 1012.8 in /  34293.4 hPa West 6.4 mph /  10.3 km/h 9.7 mph /  15.6 km/h 95 % 2.0 in /  50.8 mm
05:02 8.0 °F /  -13.3 °C 7.2 °F /  -13.8 °C 1012.8 in /  34293.4 hPa West 4.8 mph /  7.7 km/h 9.7 mph /  15.6 km/h 95 % 2.0 in /  50.8 mm
05:12 7.9 °F /  -13.4 °C 7.0 °F /  -13.9 °C 1012.8 in /  34293.4 hPa Calm   8.0 mph /  12.9 km/h 94 % 1.3 in /  33.02 mm
05:22 7.9 °F /  -13.4 °C 7.0 °F /  -13.9 °C 1013.1 in /  34303.6 hPa West 4.8 mph /  7.7 km/h 8.0 mph /  12.9 km/h 94 % 1.0 in /  25.4 mm
05:32 7.9 °F /  -13.4 °C 7.0 °F /  -13.9 °C 1013.1 in /  34303.6 hPa West 3.2 mph /  5.1 km/h 11.3 mph /  18.2 km/h 94 % 0.8 in /  20.32 mm
05:37 7.9 °F /  -13.4 °C 7.0 °F /  -13.9 °C 1013.1 in /  34303.6 hPa WNW 1.6 mph /  2.6 km/h 11.3 mph /  18.2 km/h 94 % 0.5 in /  12.7 mm
05:42 7.8 °F /  -13.4 °C 6.9 °F /  -13.9 °C 1013.1 in /  34303.6 hPa Calm   11.3 mph /  18.2 km/h 94 % 0.5 in /  12.7 mm
05:52 7.7 °F /  -13.5 °C 6.8 °F /  -14 °C 1013.1 in /  34303.6 hPa SW 1.6 mph /  2.6 km/h 6.4 mph /  10.3 km/h 94 % 0.5 in /  12.7 mm
05:57 7.6 °F /  -13.6 °C 6.7 °F /  -14.1 °C 1012.8 in /  34293.4 hPa SW 1.6 mph /  2.6 km/h 4.8 mph /  7.7 km/h 94 % 0.5 in /  12.7 mm
06:02 7.6 °F /  -13.6 °C 6.5 °F /  -14.2 °C 1012.8 in /  34293.4 hPa WSW 1.6 mph /  2.6 km/h 4.8 mph /  7.7 km/h 93 % 0.5 in /  12.7 mm
06:12 7.4 °F /  -13.7 °C 6.3 °F /  -14.3 °C 1013.1 in /  34303.6 hPa WNW 1.6 mph /  2.6 km/h 4.8 mph /  7.7 km/h 93 % 0.5 in /  12.7 mm
06:17 7.4 °F /  -13.7 °C 6.3 °F /  -14.3 °C 1013.4 in /  34313.7 hPa West 1.6 mph /  2.6 km/h 3.2 mph /  5.1 km/h 93 % 0.3 in /  7.62 mm
06:22 7.3 °F /  -13.7 °C 6.4 °F /  -14.2 °C 1013.4 in /  34313.7 hPa WNW 6.4 mph /  10.3 km/h 6.4 mph /  10.3 km/h 94 % 0.3 in /  7.62 mm
06:32 7.3 °F /  -13.7 °C 6.4 °F /  -14.2 °C 1013.8 in /  34327.3 hPa West 3.2 mph /  5.1 km/h 8.0 mph /  12.9 km/h 94 % 0.3 in /  7.62 mm
06:42 7.4 °F /  -13.7 °C 6.5 °F /  -14.2 °C 1013.4 in /  34313.7 hPa West 6.4 mph /  10.3 km/h 8.0 mph /  12.9 km/h 94 % 0.0 in /  0 mm
06:47 7.4 °F /  -13.7 °C 6.5 °F /  -14.2 °C 1013.8 in /  34327.3 hPa West 4.8 mph /  7.7 km/h 8.0 mph /  12.9 km/h 94 % 0.0 in /  0 mm
06:52 7.4 °F /  -13.7 °C 6.5 °F /  -14.2 °C 1013.8 in /  34327.3 hPa West 4.8 mph /  7.7 km/h 8.0 mph /  12.9 km/h 94 % 0.0 in /  0 mm
07:02 7.4 °F /  -13.7 °C 6.5 °F /  -14.2 °C 1013.8 in /  34327.3 hPa West 1.6 mph /  2.6 km/h 8.0 mph /  12.9 km/h 94 % 0.0 in /  0 mm
07:12 7.3 °F /  -13.7 °C 6.4 °F /  -14.2 °C 1013.8 in /  34327.3 hPa WNW 3.2 mph /  5.1 km/h 8.0 mph /  12.9 km/h 94 % 0.0 in /  0 mm
07:17 7.3 °F /  -13.7 °C 6.2 °F /  -14.3 °C 1014.1 in /  34337.4 hPa West 3.2 mph /  5.1 km/h 6.4 mph /  10.3 km/h 93 % 0.0 in /  0 mm
07:22 7.2 °F /  -13.8 °C 6.3 °F /  -14.3 °C 1014.1 in /  34337.4 hPa West 1.6 mph /  2.6 km/h 6.4 mph /  10.3 km/h 94 % 0.0 in /  0 mm
07:32 7.2 °F /  -13.8 °C 6.1 °F /  -14.4 °C 1014.1 in /  34337.4 hPa West 3.2 mph /  5.1 km/h 6.4 mph /  10.3 km/h 93 % 0.0 in /  0 mm
07:37 7.3 °F /  -13.7 °C 6.1 °F /  -14.4 °C 1014.1 in /  34337.4 hPa WNW 4.8 mph /  7.7 km/h 8.0 mph /  12.9 km/h 92 % 0.0 in /  0 mm
07:42 7.3 °F /  -13.7 °C 6.1 °F /  -14.4 °C 1014.4 in /  34347.6 hPa WNW 1.6 mph /  2.6 km/h 8.0 mph /  12.9 km/h 92 % 0.0 in /  0 mm
07:47 7.3 °F /  -13.7 °C 6.1 °F /  -14.4 °C 1014.4 in /  34347.6 hPa West 3.2 mph /  5.1 km/h 8.0 mph /  12.9 km/h 92 % 0.0 in /  0 mm
07:52 7.3 °F /  -13.7 °C 6.1 °F /  -14.4 °C 1014.4 in /  34347.6 hPa WNW 12.9 mph /  20.8 km/h 12.9 mph /  20.8 km/h 92 % 0.0 in /  0 mm
07:57 7.3 °F /  -13.7 °C 6.1 °F /  -14.4 °C 1014.4 in /  34347.6 hPa West 8.0 mph /  12.9 km/h 9.7 mph /  15.6 km/h 92 % 0.0 in /  0 mm
08:07 7.2 °F /  -13.8 °C 5.8 °F /  -14.6 °C 1014.4 in /  34347.6 hPa West 9.7 mph /  15.6 km/h 12.9 mph /  20.8 km/h 91 % 0.0 in /  0 mm
08:12 7.2 °F /  -13.8 °C 5.8 °F /  -14.6 °C 1014.8 in /  34361.1 hPa WNW 4.8 mph /  7.7 km/h 12.9 mph /  20.8 km/h 91 % 0.0 in /  0 mm
08:17 7.1 °F /  -13.8 °C 5.7 °F /  -14.6 °C 1014.8 in /  34361.1 hPa WNW 12.9 mph /  20.8 km/h 12.9 mph /  20.8 km/h 91 % 0.0 in /  0 mm
08:22 7.1 °F /  -13.8 °C 5.6 °F /  -14.7 °C 1014.8 in /  34361.1 hPa WNW 8.0 mph /  12.9 km/h 12.9 mph /  20.8 km/h 90 % 0.0 in /  0 mm
08:32 6.9 °F /  -13.9 °C 5.4 °F /  -14.8 °C 1015.1 in /  34371.3 hPa West 6.4 mph /  10.3 km/h 16.1 mph /  25.9 km/h 90 % 0.0 in /  0 mm
08:42 6.8 °F /  -14 °C 5.4 °F /  -14.8 °C 1015.1 in /  34371.3 hPa West 3.2 mph /  5.1 km/h 16.1 mph /  25.9 km/h 91 % 0.0 in /  0 mm
08:52 6.7 °F /  -14.1 °C 5.3 °F /  -14.8 °C 1015.5 in /  34384.8 hPa WNW 8.0 mph /  12.9 km/h 11.3 mph /  18.2 km/h 91 % 0.0 in /  0 mm
09:02 6.8 °F /  -14 °C 5.4 °F /  -14.8 °C 1015.5 in /  34384.8 hPa WSW 8.0 mph /  12.9 km/h 12.9 mph /  20.8 km/h 91 % 0.0 in /  0 mm
09:12 6.8 °F /  -14 °C 5.6 °F /  -14.7 °C 1015.8 in /  34395 hPa WSW 8.0 mph /  12.9 km/h 12.9 mph /  20.8 km/h 92 % 0.0 in /  0 mm
09:17 6.8 °F /  -14 °C 5.6 °F /  -14.7 °C 1015.8 in /  34395 hPa West 11.3 mph /  18.2 km/h 12.9 mph /  20.8 km/h 92 % 0.0 in /  0 mm
09:27 7.1 °F /  -13.8 °C 5.9 °F /  -14.5 °C 1015.8 in /  34395 hPa West 11.3 mph /  18.2 km/h 17.7 mph /  28.5 km/h 92 % 0.0 in /  0 mm
09:32 7.1 °F /  -13.8 °C 5.9 °F /  -14.5 °C 1015.8 in /  34395 hPa West 8.0 mph /  12.9 km/h 17.7 mph /  28.5 km/h 92 % 0.0 in /  0 mm
09:37 7.2 °F /  -13.8 °C 6.0 °F /  -14.4 °C 1016.1 in /  34405.1 hPa WSW 9.7 mph /  15.6 km/h 17.7 mph /  28.5 km/h 92 % 0.0 in /  0 mm
09:42 7.2 °F /  -13.8 °C 5.8 °F /  -14.6 °C 1016.1 in /  34405.1 hPa West 11.3 mph /  18.2 km/h 17.7 mph /  28.5 km/h 91 % 0.0 in /  0 mm
09:52 7.1 °F /  -13.8 °C 5.4 °F /  -14.8 °C 1016.1 in /  34405.1 hPa West 12.9 mph /  20.8 km/h 17.7 mph /  28.5 km/h 89 % 0.0 in /  0 mm
10:02 7.2 °F /  -13.8 °C 5.3 °F /  -14.8 °C 1016.1 in /  34405.1 hPa WSW 12.9 mph /  20.8 km/h 25.7 mph /  41.4 km/h 88 % 0.0 in /  0 mm
10:12 7.1 °F /  -13.8 °C 5.2 °F /  -14.9 °C 1016.5 in /  34418.7 hPa WNW 12.9 mph /  20.8 km/h 22.5 mph /  36.2 km/h 88 % 0.0 in /  0 mm
10:17 7.1 °F /  -13.8 °C 5.2 °F /  -14.9 °C 1016.5 in /  34418.7 hPa West 4.8 mph /  7.7 km/h 22.5 mph /  36.2 km/h 88 % 0.0 in /  0 mm
10:22 7.1 °F /  -13.8 °C 5.2 °F /  -14.9 °C 1016.5 in /  34418.7 hPa West 9.7 mph /  15.6 km/h 22.5 mph /  36.2 km/h 88 % 0.0 in /  0 mm
10:27 7.1 °F /  -13.8 °C 5.2 °F /  -14.9 °C 1016.8 in /  34428.8 hPa NW 12.9 mph /  20.8 km/h 22.5 mph /  36.2 km/h 88 % 0.0 in /  0 mm
10:32 7.1 °F /  -13.8 °C 5.1 °F /  -14.9 °C 1016.8 in /  34428.8 hPa WSW 8.0 mph /  12.9 km/h 22.5 mph /  36.2 km/h 87 % 0.0 in /  0 mm
10:42 7.0 °F /  -13.9 °C 5.0 °F /  -15 °C 1016.8 in /  34428.8 hPa WNW 14.5 mph /  23.3 km/h 22.5 mph /  36.2 km/h 87 % 0.0 in /  0 mm
10:47 6.9 °F /  -13.9 °C 4.9 °F /  -15.1 °C 1016.8 in /  34428.8 hPa West 6.4 mph /  10.3 km/h 27.4 mph /  44.1 km/h 87 % 0.0 in /  0 mm
10:52 6.9 °F /  -13.9 °C 4.9 °F /  -15.1 °C 1017.2 in /  34442.4 hPa West 16.1 mph /  25.9 km/h 27.4 mph /  44.1 km/h 87 % 0.0 in /  0 mm
11:02 7.0 °F /  -13.9 °C 4.8 °F /  -15.1 °C 1017.2 in /  34442.4 hPa West 9.7 mph /  15.6 km/h 27.4 mph /  44.1 km/h 86 % 0.0 in /  0 mm
11:12 7.1 °F /  -13.8 °C 5.1 °F /  -14.9 °C 1017.5 in /  34452.6 hPa West 20.9 mph /  33.6 km/h 27.4 mph /  44.1 km/h 87 % 0.0 in /  0 mm
11:17 7.1 °F /  -13.8 °C 4.7 °F /  -15.2 °C 1017.5 in /  34452.6 hPa West 11.3 mph /  18.2 km/h 25.7 mph /  41.4 km/h 85 % 0.0 in /  0 mm
11:22 7.1 °F /  -13.8 °C 4.7 °F /  -15.2 °C 1017.5 in /  34452.6 hPa WNW 19.3 mph /  31.1 km/h 25.7 mph /  41.4 km/h 85 % 0.0 in /  0 mm
11:27 6.9 °F /  -13.9 °C 4.6 °F /  -15.2 °C 1017.5 in /  34452.6 hPa West 16.1 mph /  25.9 km/h 30.6 mph /  49.2 km/h 85 % 0.0 in /  0 mm
11:32 6.8 °F /  -14 °C 4.5 °F /  -15.3 °C 1017.5 in /  34452.6 hPa West 19.3 mph /  31.1 km/h 30.6 mph /  49.2 km/h 85 % 0.0 in /  0 mm
11:42 6.6 °F /  -14.1 °C 4.4 °F /  -15.3 °C 1017.8 in /  34462.7 hPa West 9.7 mph /  15.6 km/h 30.6 mph /  49.2 km/h 86 % 0.0 in /  0 mm
11:47 6.5 °F /  -14.2 °C 4.3 °F /  -15.4 °C 1017.8 in /  34462.7 hPa West 12.9 mph /  20.8 km/h 27.4 mph /  44.1 km/h 86 % 0.0 in /  0 mm
11:52 6.4 °F /  -14.2 °C 4.2 °F /  -15.4 °C 1017.8 in /  34462.7 hPa WNW 11.3 mph /  18.2 km/h 27.4 mph /  44.1 km/h 86 % 0.0 in /  0 mm
12:02 6.3 °F /  -14.3 °C 4.1 °F /  -15.5 °C 1018.2 in /  34476.3 hPa WNW 14.5 mph /  23.3 km/h 25.7 mph /  41.4 km/h 86 % 0.0 in /  0 mm
12:12 6.1 °F /  -14.4 °C 3.9 °F /  -15.6 °C 1018.2 in /  34476.3 hPa West 8.0 mph /  12.9 km/h 25.7 mph /  41.4 km/h 86 % 0.0 in /  0 mm
12:17 6.2 °F /  -14.3 °C 4.0 °F /  -15.6 °C 1018.2 in /  34476.3 hPa WSW 20.9 mph /  33.6 km/h 32.2 mph /  51.8 km/h 86 % 0.0 in /  0 mm
12:22 6.1 °F /  -14.4 °C 3.9 °F /  -15.6 °C 1018.2 in /  34476.3 hPa West 8.0 mph /  12.9 km/h 32.2 mph /  51.8 km/h 86 % 0.0 in /  0 mm
12:32 6.1 °F /  -14.4 °C 3.8 °F /  -15.7 °C 1018.2 in /  34476.3 hPa WNW 16.1 mph /  25.9 km/h 24.1 mph /  38.8 km/h 85 % 0.0 in /  0 mm
12:37 6.1 °F /  -14.4 °C 3.8 °F /  -15.7 °C 1018.2 in /  34476.3 hPa WNW 20.9 mph /  33.6 km/h 25.7 mph /  41.4 km/h 85 % 0.0 in /  0 mm
12:42 6.3 °F /  -14.3 °C 4.1 °F /  -15.5 °C 1018.2 in /  34476.3 hPa West 14.5 mph /  23.3 km/h 25.7 mph /  41.4 km/h 86 % 0.0 in /  0 mm
12:47 6.3 °F /  -14.3 °C 3.8 °F /  -15.7 °C 1018.5 in /  34486.4 hPa WNW 9.7 mph /  15.6 km/h 25.7 mph /  41.4 km/h 84 % 0.0 in /  0 mm
12:57 6.4 °F /  -14.2 °C 3.6 °F /  -15.8 °C 1018.5 in /  34486.4 hPa West 11.3 mph /  18.2 km/h 27.4 mph /  44.1 km/h 82 % 0.0 in /  0 mm
13:02 6.5 °F /  -14.2 °C 3.6 °F /  -15.8 °C 1018.5 in /  34486.4 hPa WNW 16.1 mph /  25.9 km/h 27.4 mph /  44.1 km/h 82 % 0.0 in /  0 mm
13:12 6.5 °F /  -14.2 °C 3.8 °F /  -15.7 °C 1018.5 in /  34486.4 hPa WNW 22.5 mph /  36.2 km/h 29.0 mph /  46.7 km/h 83 % 0.0 in /  0 mm
13:17 6.3 °F /  -14.3 °C 3.6 °F /  -15.8 °C 1018.8 in /  34496.6 hPa WNW 11.3 mph /  18.2 km/h 29.0 mph /  46.7 km/h 83 % 0.0 in /  0 mm
13:22 6.2 °F /  -14.3 °C 3.5 °F /  -15.8 °C 1018.8 in /  34496.6 hPa NW 14.5 mph /  23.3 km/h 29.0 mph /  46.7 km/h 83 % 0.0 in /  0 mm
13:32 6.1 °F /  -14.4 °C 3.3 °F /  -15.9 °C 1018.8 in /  34496.6 hPa WNW 17.7 mph /  28.5 km/h 25.7 mph /  41.4 km/h 82 % 0.0 in /  0 mm
13:37 6.1 °F /  -14.4 °C 3.4 °F /  -15.9 °C 1019.2 in /  34510.1 hPa NW 12.9 mph /  20.8 km/h 25.7 mph /  41.4 km/h 83 % 0.0 in /  0 mm
13:42 6.1 °F /  -14.4 °C 3.4 °F /  -15.9 °C 1019.2 in /  34510.1 hPa West 11.3 mph /  18.2 km/h 25.7 mph /  41.4 km/h 83 % 0.0 in /  0 mm
13:47 6.0 °F /  -14.4 °C 3.2 °F /  -16 °C 1019.2 in /  34510.1 hPa WNW 9.7 mph /  15.6 km/h 24.1 mph /  38.8 km/h 82 % 0.0 in /  0 mm
13:52 5.9 °F /  -14.5 °C 3.4 °F /  -15.9 °C 1019.2 in /  34510.1 hPa West 12.9 mph /  20.8 km/h 24.1 mph /  38.8 km/h 84 % 0.0 in /  0 mm
14:02 5.8 °F /  -14.6 °C 3.3 °F /  -15.9 °C 1019.5 in /  34520.3 hPa West 11.3 mph /  18.2 km/h 17.7 mph /  28.5 km/h 84 % 0.0 in /  0 mm
14:12 5.9 °F /  -14.5 °C 3.2 °F /  -16 °C 1019.5 in /  34520.3 hPa WNW 17.7 mph /  28.5 km/h 22.5 mph /  36.2 km/h 83 % 0.0 in /  0 mm
14:17 5.9 °F /  -14.5 °C 3.2 °F /  -16 °C 1019.5 in /  34520.3 hPa WNW 12.9 mph /  20.8 km/h 25.7 mph /  41.4 km/h 83 % 0.0 in /  0 mm
14:22 5.9 °F /  -14.5 °C 3.1 °F /  -16.1 °C 1019.9 in /  34533.8 hPa WNW 11.3 mph /  18.2 km/h 25.7 mph /  41.4 km/h 82 % 0.0 in /  0 mm
14:32 5.9 °F /  -14.5 °C 3.2 °F /  -16 °C 1019.9 in /  34533.8 hPa WNW 17.7 mph /  28.5 km/h 25.7 mph /  41.4 km/h 83 % 0.0 in /  0 mm
14:42 5.8 °F /  -14.6 °C 3.0 °F /  -16.1 °C 1019.9 in /  34533.8 hPa WNW 14.5 mph /  23.3 km/h 24.1 mph /  38.8 km/h 82 % 0.0 in /  0 mm
14:47 5.9 °F /  -14.5 °C 3.2 °F /  -16 °C 1019.9 in /  34533.8 hPa WNW 6.4 mph /  10.3 km/h 20.9 mph /  33.6 km/h 83 % 0.0 in /  0 mm
14:52 5.9 °F /  -14.5 °C 3.1 °F /  -16.1 °C 1020.2 in /  34544 hPa WNW 8.0 mph /  12.9 km/h 20.9 mph /  33.6 km/h 82 % 0.0 in /  0 mm
15:02 6.1 °F /  -14.4 °C 3.1 °F /  -16.1 °C 1020.2 in /  34544 hPa WNW 8.0 mph /  12.9 km/h 22.5 mph /  36.2 km/h 81 % 0.0 in /  0 mm
15:12 6.1 °F /  -14.4 °C 3.1 °F /  -16.1 °C 1020.2 in /  34544 hPa NW 6.4 mph /  10.3 km/h 20.9 mph /  33.6 km/h 81 % 0.0 in /  0 mm
15:17 6.3 °F /  -14.3 °C 3.3 °F /  -15.9 °C 1020.2 in /  34544 hPa West 3.2 mph /  5.1 km/h 19.3 mph /  31.1 km/h 81 % 0.0 in /  0 mm
15:22 6.4 °F /  -14.2 °C 3.4 °F /  -15.9 °C 1020.2 in /  34544 hPa West 9.7 mph /  15.6 km/h 19.3 mph /  31.1 km/h 81 % 0.0 in /  0 mm
15:32 6.3 °F /  -14.3 °C 3.3 °F /  -15.9 °C 1020.5 in /  34554.1 hPa WSW 9.7 mph /  15.6 km/h 24.1 mph /  38.8 km/h 81 % 0.0 in /  0 mm
15:37 6.3 °F /  -14.3 °C 3.1 °F /  -16.1 °C 1020.5 in /  34554.1 hPa WNW 12.9 mph /  20.8 km/h 24.1 mph /  38.8 km/h 80 % 0.0 in /  0 mm
15:42 6.1 °F /  -14.4 °C 2.9 °F /  -16.2 °C 1020.9 in /  34567.7 hPa West 14.5 mph /  23.3 km/h 24.1 mph /  38.8 km/h 80 % 0.0 in /  0 mm
15:52 5.9 °F /  -14.5 °C 2.9 °F /  -16.2 °C 1021.2 in /  34577.8 hPa WNW 17.7 mph /  28.5 km/h 20.9 mph /  33.6 km/h 81 % 0.0 in /  0 mm
16:02 5.9 °F /  -14.5 °C 2.9 °F /  -16.2 °C 1021.2 in /  34577.8 hPa WNW 8.0 mph /  12.9 km/h 24.1 mph /  38.8 km/h 81 % 0.0 in /  0 mm
16:12 5.8 °F /  -14.6 °C 2.6 °F /  -16.3 °C 1021.6 in /  34591.4 hPa WNW 12.9 mph /  20.8 km/h 24.1 mph /  38.8 km/h 80 % 0.0 in /  0 mm
16:17 5.8 °F /  -14.6 °C 2.6 °F /  -16.3 °C 1021.6 in /  34591.4 hPa WNW 4.8 mph /  7.7 km/h 22.5 mph /  36.2 km/h 80 % 0.0 in /  0 mm
16:22 5.8 °F /  -14.6 °C 2.6 °F /  -16.3 °C 1021.6 in /  34591.4 hPa WNW 8.0 mph /  12.9 km/h 22.5 mph /  36.2 km/h 80 % 0.0 in /  0 mm
16:27 5.7 °F /  -14.6 °C 2.7 °F /  -16.3 °C 1021.6 in /  34591.4 hPa WNW 12.9 mph /  20.8 km/h 16.1 mph /  25.9 km/h 81 % 0.0 in /  0 mm
16:32 5.6 °F /  -14.7 °C 2.8 °F /  -16.2 °C 1021.6 in /  34591.4 hPa WNW 3.2 mph /  5.1 km/h 16.1 mph /  25.9 km/h 82 % 0.0 in /  0 mm
16:37 5.6 °F /  -14.7 °C 2.8 °F /  -16.2 °C 1021.6 in /  34591.4 hPa WNW 6.4 mph /  10.3 km/h 14.5 mph /  23.3 km/h 82 % 0.0 in /  0 mm
16:42 5.5 °F /  -14.7 °C 2.7 °F /  -16.3 °C 1021.9 in /  34601.5 hPa WNW 1.6 mph /  2.6 km/h 14.5 mph /  23.3 km/h 82 % 0.0 in /  0 mm
17:02 5.2 °F /  -14.9 °C 2.2 °F /  -16.6 °C 1022.2 in /  34611.7 hPa WNW 11.3 mph /  18.2 km/h 24.1 mph /  38.8 km/h 81 % 0.0 in /  0 mm
17:12 5.0 °F /  -15 °C 2.0 °F /  -16.7 °C 1022.2 in /  34611.7 hPa WNW 8.0 mph /  12.9 km/h 22.5 mph /  36.2 km/h 81 % 0.0 in /  0 mm
17:17 4.8 °F /  -15.1 °C 1.8 °F /  -16.8 °C 1022.2 in /  34611.7 hPa West 1.6 mph /  2.6 km/h 22.5 mph /  36.2 km/h 81 % 0.0 in /  0 mm
17:22 4.8 °F /  -15.1 °C 1.8 °F /  -16.8 °C 1022.2 in /  34611.7 hPa NW 3.2 mph /  5.1 km/h 22.5 mph /  36.2 km/h 81 % 0.0 in /  0 mm
17:32 4.6 °F /  -15.2 °C 1.8 °F /  -16.8 °C 1022.6 in /  34625.2 hPa West 3.2 mph /  5.1 km/h 16.1 mph /  25.9 km/h 82 % 0.0 in /  0 mm
17:37 4.5 °F /  -15.3 °C 1.9 °F /  -16.7 °C 1022.6 in /  34625.2 hPa NW 6.4 mph /  10.3 km/h 11.3 mph /  18.2 km/h 83 % 0.0 in /  0 mm
17:42 4.4 °F /  -15.3 °C 1.8 °F /  -16.8 °C 1022.6 in /  34625.2 hPa WNW 6.4 mph /  10.3 km/h 11.3 mph /  18.2 km/h 83 % 0.0 in /  0 mm
17:47 4.3 °F /  -15.4 °C 1.7 °F /  -16.8 °C 1022.9 in /  34635.4 hPa WNW 3.2 mph /  5.1 km/h 8.0 mph /  12.9 km/h 83 % 0.0 in /  0 mm
17:52 4.2 °F /  -15.4 °C 1.7 °F /  -16.8 °C 1022.9 in /  34635.4 hPa Calm   8.0 mph /  12.9 km/h 84 % 0.0 in /  0 mm
17:57 4.2 °F /  -15.4 °C 1.7 °F /  -16.8 °C 1022.9 in /  34635.4 hPa Calm   8.0 mph /  12.9 km/h 84 % 0.0 in /  0 mm
18:02 4.1 °F /  -15.5 °C 1.6 °F /  -16.9 °C 1023.2 in /  34645.6 hPa WNW 1.6 mph /  2.6 km/h 8.0 mph /  12.9 km/h 84 % 0.0 in /  0 mm
18:07 4.1 °F /  -15.5 °C 1.6 °F /  -16.9 °C 1023.2 in /  34645.6 hPa West 3.2 mph /  5.1 km/h 9.7 mph /  15.6 km/h 84 % 0.0 in /  0 mm
18:12 4.0 °F /  -15.6 °C 1.5 °F /  -16.9 °C 1023.2 in /  34645.6 hPa West 1.6 mph /  2.6 km/h 9.7 mph /  15.6 km/h 84 % 0.0 in /  0 mm
18:17 3.9 °F /  -15.6 °C 1.4 °F /  -17 °C 1023.2 in /  34645.6 hPa WNW 3.2 mph /  5.1 km/h 9.7 mph /  15.6 km/h 84 % 0.0 in /  0 mm
18:22 3.8 °F /  -15.7 °C 1.3 °F /  -17.1 °C 1023.2 in /  34645.6 hPa WNW 3.2 mph /  5.1 km/h 9.7 mph /  15.6 km/h 84 % 0.0 in /  0 mm
18:37 3.8 °F /  -15.7 °C 1.3 °F /  -17.1 °C 1023.6 in /  34659.1 hPa WNW 8.0 mph /  12.9 km/h 9.7 mph /  15.6 km/h 84 % 0.0 in /  0 mm
18:42 3.8 °F /  -15.7 °C 1.3 °F /  -17.1 °C 1023.6 in /  34659.1 hPa West 8.0 mph /  12.9 km/h 11.3 mph /  18.2 km/h 84 % 0.0 in /  0 mm
18:47 3.8 °F /  -15.7 °C 1.2 °F /  -17.1 °C 1023.6 in /  34659.1 hPa WNW 6.4 mph /  10.3 km/h 14.5 mph /  23.3 km/h 83 % 0.0 in /  0 mm
18:52 3.8 °F /  -15.7 °C 1.2 °F /  -17.1 °C 1023.6 in /  34659.1 hPa WNW 4.8 mph /  7.7 km/h 14.5 mph /  23.3 km/h 83 % 0.0 in /  0 mm
18:57 3.8 °F /  -15.7 °C 1.2 °F /  -17.1 °C 1023.6 in /  34659.1 hPa West 3.2 mph /  5.1 km/h 14.5 mph /  23.3 km/h 83 % 0.0 in /  0 mm
19:02 3.8 °F /  -15.7 °C 1.3 °F /  -17.1 °C 1023.9 in /  34669.3 hPa WNW 6.4 mph /  10.3 km/h 14.5 mph /  23.3 km/h 84 % 0.0 in /  0 mm
19:12 3.9 °F /  -15.6 °C 1.3 °F /  -17.1 °C 1023.9 in /  34669.3 hPa WNW 3.2 mph /  5.1 km/h 11.3 mph /  18.2 km/h 83 % 0.0 in /  0 mm
19:17 3.9 °F /  -15.6 °C 1.3 °F /  -17.1 °C 1023.9 in /  34669.3 hPa West 1.6 mph /  2.6 km/h 12.9 mph /  20.8 km/h 83 % 0.0 in /  0 mm
19:22 3.9 °F /  -15.6 °C 1.3 °F /  -17.1 °C 1023.9 in /  34669.3 hPa WNW 1.6 mph /  2.6 km/h 12.9 mph /  20.8 km/h 83 % 0.0 in /  0 mm
19:32 3.9 °F /  -15.6 °C 1.3 °F /  -17.1 °C 1024.3 in /  34682.8 hPa NW 4.8 mph /  7.7 km/h 9.7 mph /  15.6 km/h 83 % 0.0 in /  0 mm
19:42 4.1 °F /  -15.5 °C 1.5 °F /  -16.9 °C 1024.3 in /  34682.8 hPa Calm   9.7 mph /  15.6 km/h 83 % 0.0 in /  0 mm
19:52 3.9 °F /  -15.6 °C 1.4 °F /  -17 °C 1024.6 in /  34693 hPa WNW 1.6 mph /  2.6 km/h 6.4 mph /  10.3 km/h 84 % 0.0 in /  0 mm
20:02 3.9 °F /  -15.6 °C 1.4 °F /  -17 °C 1024.6 in /  34693 hPa West 1.6 mph /  2.6 km/h 11.3 mph /  18.2 km/h 84 % 0.0 in /  0 mm
20:07 3.8 °F /  -15.7 °C 1.2 °F /  -17.1 °C 1024.6 in /  34693 hPa West 8.0 mph /  12.9 km/h 9.7 mph /  15.6 km/h 83 % 0.0 in /  0 mm
20:12 3.8 °F /  -15.7 °C 1.2 °F /  -17.1 °C 1024.6 in /  34693 hPa WSW 8.0 mph /  12.9 km/h 9.7 mph /  15.6 km/h 83 % 0.0 in /  0 mm
20:17 3.7 °F /  -15.7 °C 1.1 °F /  -17.2 °C 1024.6 in /  34693 hPa WSW 4.8 mph /  7.7 km/h 9.7 mph /  15.6 km/h 83 % 0.0 in /  0 mm
20:22 3.6 °F /  -15.8 °C 1.0 °F /  -17.2 °C 1024.6 in /  34693 hPa West 1.6 mph /  2.6 km/h 9.7 mph /  15.6 km/h 83 % 0.0 in /  0 mm
20:32 3.3 °F /  -15.9 °C 0.7 °F /  -17.4 °C 1024.6 in /  34693 hPa Calm   8.0 mph /  12.9 km/h 83 % 0.0 in /  0 mm
20:37 3.2 °F /  -16 °C 0.6 °F /  -17.4 °C 1024.9 in /  34703.1 hPa WSW 1.6 mph /  2.6 km/h 3.2 mph /  5.1 km/h 83 % 0.0 in /  0 mm
20:42 3.2 °F /  -16 °C 0.6 °F /  -17.4 °C 1024.9 in /  34703.1 hPa Calm   3.2 mph /  5.1 km/h 83 % 0.0 in /  0 mm
20:47 3.1 °F /  -16.1 °C 0.5 °F /  -17.5 °C 1024.9 in /  34703.1 hPa Calm   3.2 mph /  5.1 km/h 83 % 0.0 in /  0 mm
20:57 2.8 °F /  -16.2 °C 0.4 °F /  -17.6 °C 1024.9 in /  34703.1 hPa WSW 1.6 mph /  2.6 km/h 3.2 mph /  5.1 km/h 84 % 0.0 in /  0 mm
21:02 2.9 °F /  -16.2 °C 0.5 °F /  -17.5 °C 1025.3 in /  34716.7 hPa WSW 1.6 mph /  2.6 km/h 3.2 mph /  5.1 km/h 84 % 0.0 in /  0 mm
21:12 2.9 °F /  -16.2 °C 0.3 °F /  -17.6 °C 1025.3 in /  34716.7 hPa Calm   4.8 mph /  7.7 km/h 83 % 0.0 in /  0 mm
21:17 2.9 °F /  -16.2 °C 0.3 °F /  -17.6 °C 1025.3 in /  34716.7 hPa Calm   3.2 mph /  5.1 km/h 83 % 0.0 in /  0 mm
21:22 2.9 °F /  -16.2 °C 0.3 °F /  -17.6 °C 1025.3 in /  34716.7 hPa Calm   3.2 mph /  5.1 km/h 83 % 0.0 in /  0 mm
21:27 2.9 °F /  -16.2 °C 0.3 °F /  -17.6 °C 1025.3 in /  34716.7 hPa SW 1.6 mph /  2.6 km/h 1.6 mph /  2.6 km/h 83 % 0.0 in /  0 mm
21:32 2.9 °F /  -16.2 °C 0.3 °F /  -17.6 °C 1025.3 in /  34716.7 hPa WSW 1.6 mph /  2.6 km/h 1.6 mph /  2.6 km/h 83 % 0.0 in /  0 mm
21:42 2.8 °F /  -16.2 °C 0.4 °F /  -17.6 °C 1025.3 in /  34716.7 hPa WSW 1.6 mph /  2.6 km/h 4.8 mph /  7.7 km/h 84 % 0.0 in /  0 mm
21:47 2.9 °F /  -16.2 °C 0.5 °F /  -17.5 °C 1025.6 in /  34726.8 hPa West 3.2 mph /  5.1 km/h 4.8 mph /  7.7 km/h 84 % 0.0 in /  0 mm
21:57 3.0 °F /  -16.1 °C 0.6 °F /  -17.4 °C 1025.6 in /  34726.8 hPa West 1.6 mph /  2.6 km/h 6.4 mph /  10.3 km/h 84 % 0.0 in /  0 mm
22:02 2.9 °F /  -16.2 °C 0.5 °F /  -17.5 °C 1025.6 in /  34726.8 hPa WSW 3.2 mph /  5.1 km/h 6.4 mph /  10.3 km/h 84 % 0.0 in /  0 mm
22:12 3.0 °F /  -16.1 °C 0.6 °F /  -17.4 °C 1025.6 in /  34726.8 hPa Calm   4.8 mph /  7.7 km/h 84 % 0.0 in /  0 mm
22:17 2.9 °F /  -16.2 °C 0.5 °F /  -17.5 °C 1025.6 in /  34726.8 hPa SW 1.6 mph /  2.6 km/h 4.8 mph /  7.7 km/h 84 % 0.0 in /  0 mm
22:27 2.2 °F /  -16.6 °C 0.1 °F /  -17.7 °C 1025.6 in /  34726.8 hPa Calm   3.2 mph /  5.1 km/h 86 % 0.0 in /  0 mm
22:32 2.0 °F /  -16.7 °C 0.1 °F /  -17.7 °C 1026.0 in /  34740.4 hPa Calm   3.2 mph /  5.1 km/h 87 % 0.0 in /  0 mm
22:42 1.8 °F /  -16.8 °C 0.0 °F /  -17.8 °C 1026.0 in /  34740.4 hPa Calm   3.2 mph /  5.1 km/h 88 % 0.0 in /  0 mm
22:52 1.6 °F /  -16.9 °C 0.0 °F /  -17.8 °C 1026.0 in /  34740.4 hPa Calm     89 % 0.0 in /  0 mm
23:02 1.6 °F /  -16.9 °C 0.1 °F /  -17.7 °C 1026.0 in /  34740.4 hPa SSE 1.6 mph /  2.6 km/h   90 % 0.0 in /  0 mm
23:12 1.6 °F /  -16.9 °C 0.1 °F /  -17.7 °C 1026.0 in /  34740.4 hPa Calm   1.6 mph /  2.6 km/h 90 % 0.0 in /  0 mm
23:22 1.4 °F /  -17 °C -0.1 °F /  -17.8 °C 1026.0 in /  34740.4 hPa Calm   1.6 mph /  2.6 km/h 90 % 0.0 in /  0 mm
23:32 1.4 °F /  -17 °C -0.1 °F /  -17.8 °C 1026.0 in /  34740.4 hPa SE 1.6 mph /  2.6 km/h 3.2 mph /  5.1 km/h 90 % 0.0 in /  0 mm
23:42 1.3 °F /  -17.1 °C 0.0 °F /  -17.8 °C 1026.0 in /  34740.4 hPa Calm   3.2 mph /  5.1 km/h 91 % 0.0 in /  0 mm
23:47 1.3 °F /  -17.1 °C 0.0 °F /  -17.8 °C 1026.0 in /  34740.4 hPa Calm   1.6 mph /  2.6 km/h 91 % 0.0 in /  0 mm
23:52 1.3 °F /  -17.1 °C 0.0 °F /  -17.8 °C 1026.0 in /  34740.4 hPa Calm   1.6 mph /  2.6 km/h 91 % 0.0 in /  0 mm
Meteo18
Compliments of Weather Underground - 4 mb

Script developed by  Jim McMurry - jmcmurry@mwt.net Adapted for the template by  Wim van der Kuil - Leuven-Template.eu

You find our weather info also at:

European Weather Network

Weather Underground

Equipment we use:

Weather-station
Davis Vue

Weather-program
Meteobridge

Weather-server
Raspberry PI 2 B+

Provider
1 and 1

Davis Vue

Meteobridge

Raspberry PI 2 B+

1 and 1